Time;durP1;ratioP1;P1;durP2;ratioP2;P2;SDS_P1;SDS_P2;PMS_P1;PMS_P2;Temp;Humidity;BMP_temperature;BMP_pressure;BME280_temperature;BME280_humidity;BME280_pressure;Samples;Min_cycle;Max_cycle;Signal;HPM_P1;HPM_P2
2022/05/12 00:00:59;;;;;;;5.25;3.17;;;;;;;20.67;37.51;96512.94;5014609;28;20183;-68
2022/05/12 00:03:25;;;;;;;2.42;2.17;;;;;;;20.61;37.69;96518.69;5014311;28;20617;-68
2022/05/12 00:05:50;;;;;;;5.47;2.50;;;;;;;20.63;37.56;96511.16;5013875;28;20193;-69
2022/05/12 00:08:16;;;;;;;2.25;2.10;;;;;;;20.54;37.92;96519.06;5014933;28;20555;-68
2022/05/12 00:10:42;;;;;;;2.72;2.08;;;;;;;20.56;37.90;96522.19;5014471;28;20195;-68
2022/05/12 00:13:08;;;;;;;2.40;2.20;;;;;;;20.48;38.10;96520.25;5014571;28;20241;-68
2022/05/12 00:15:36;;;;;;;2.53;2.42;;;;;;;20.40;38.22;96520.91;5014159;28;20194;-68
2022/05/12 00:18:04;;;;;;;3.85;2.70;;;;;;;20.46;38.61;96526.94;5013951;28;20255;-68
2022/05/12 00:20:31;;;;;;;2.30;2.20;;;;;;;20.49;38.77;96513.06;5013789;28;20203;-68
2022/05/12 00:23:13;;;;;;;4.15;2.30;;;;;;;20.46;38.97;96532.25;5014190;28;20557;-68
2022/05/12 00:25:40;;;;;;;2.55;2.35;;;;;;;20.48;39.14;96532.78;5014019;28;20253;-68
2022/05/12 00:28:06;;;;;;;5.03;2.45;;;;;;;20.49;39.03;96532.47;5014347;28;20202;-68
2022/05/12 00:30:31;;;;;;;2.35;2.15;;;;;;;20.46;39.23;96530.41;5013993;28;20195;-69
2022/05/12 00:32:57;;;;;;;2.42;2.22;;;;;;;20.45;39.71;96536.81;5013731;28;20183;-68
2022/05/12 00:35:23;;;;;;;4.75;2.38;;;;;;;20.44;39.66;96534.44;5013757;28;20276;-68
2022/05/12 00:37:48;;;;;;;3.80;2.60;;;;;;;20.41;39.98;96529.69;5013749;28;20261;-68
2022/05/12 00:40:15;;;;;;;2.17;2.08;;;;;;;20.40;40.02;96534.22;5014042;28;20195;-68
2022/05/12 00:42:53;;;;;;;2.83;2.40;;;;;;;20.36;40.24;96537.78;5014010;28;20550;-68
2022/05/12 00:45:18;;;;;;;5.25;2.70;;;;;;;20.31;40.64;96536.81;5013055;28;20207;-68
2022/05/12 00:47:43;;;;;;;4.65;2.47;;;;;;;20.28;40.66;96536.59;5013514;28;20210;-68
2022/05/12 00:50:09;;;;;;;2.47;2.30;;;;;;;20.22;41.09;96535.09;5013475;28;20191;-68
2022/05/12 00:52:34;;;;;;;2.50;2.30;;;;;;;20.30;40.87;96537.84;5013769;28;20194;-68
2022/05/12 00:55:05;;;;;;;2.42;2.25;;;;;;;20.18;41.28;96532.22;5013551;28;20194;-68
2022/05/12 00:57:35;;;;;;;2.25;2.15;;;;;;;20.24;41.07;96546.22;5001876;28;20244;-68
2022/05/12 01:00:03;;;;;;;3.90;2.40;;;;;;;20.25;41.18;96545.94;4997153;28;20199;-69
2022/05/12 01:02:31;;;;;;;3.90;2.75;;;;;;;20.26;41.27;96544.84;5013604;28;20183;-68
2022/05/12 01:04:57;;;;;;;2.58;2.35;;;;;;;20.25;41.38;96550.47;5013730;28;20215;-68
2022/05/12 01:07:23;;;;;;;3.47;2.50;;;;;;;20.21;41.67;96544.16;5012980;28;20608;-68
2022/05/12 01:09:49;;;;;;;4.90;2.33;;;;;;;20.38;41.42;96556.94;5013203;28;20266;-69
2022/05/12 01:12:14;;;;;;;3.30;2.50;;;;;;;20.27;41.64;96550.97;4995888;28;20185;-68
2022/05/12 01:14:40;;;;;;;2.20;2.00;;;;;;;20.27;41.86;96553.63;5012931;28;20187;-68
2022/05/12 01:17:06;;;;;;;3.05;2.83;;;;;;;20.26;41.82;96555.50;5012509;28;20544;-68
2022/05/12 01:19:35;;;;;;;3.00;2.67;;;;;;;20.20;42.14;96553.22;5013432;28;20640;-68
2022/05/12 01:22:02;;;;;;;2.28;2.13;;;;;;;20.21;42.24;96563.59;5012858;28;20183;-68
2022/05/12 01:24:36;;;;;;;2.70;2.50;;;;;;;20.17;42.26;96565.22;5012750;28;20194;-68
2022/05/12 01:27:18;;;;;;;4.30;2.30;;;;;;;20.06;42.52;96563.81;5013176;28;20258;-69
2022/05/12 01:29:49;;;;;;;2.40;2.20;;;;;;;20.20;42.41;96572.66;5013415;28;20620;-69
2022/05/12 01:32:15;;;;;;;2.95;2.33;;;;;;;20.07;42.66;96580.59;5013342;28;20183;-68
2022/05/12 01:34:40;;;;;;;2.83;2.63;;;;;;;20.00;42.97;96578.31;5013025;28;20191;-69
2022/05/12 01:37:06;;;;;;;2.90;2.70;;;;;;;20.11;42.86;96568.28;5012751;28;20555;-69
2022/05/12 01:39:35;;;;;;;3.38;2.47;;;;;;;20.11;42.70;96571.75;5012639;28;20569;-69
2022/05/12 01:42:04;;;;;;;6.95;2.75;;;;;;;20.14;42.80;96575.69;5013109;28;20215;-68
2022/05/12 01:44:30;;;;;;;2.92;2.42;;;;;;;19.89;43.30;96580.31;5012786;28;20319;-68
2022/05/12 01:46:56;;;;;;;2.83;2.63;;;;;;;19.69;43.95;96587.84;5012898;28;20267;-68
2022/05/12 01:49:22;;;;;;;2.78;2.58;;;;;;;19.66;44.17;96594.53;5011739;28;20187;-69
2022/05/12 01:51:52;;;;;;;3.22;2.70;;;;;;;19.72;44.10;96584.63;5012995;28;20542;-69
2022/05/12 01:54:18;;;;;;;3.30;2.95;;;;;;;19.78;43.97;96578.16;5012715;28;20278;-69
2022/05/12 01:56:43;;;;;;;4.18;2.55;;;;;;;19.76;44.19;96598.91;5005613;28;20192;-69
2022/05/12 01:59:08;;;;;;;2.65;2.45;;;;;;;19.61;44.48;96602.59;5007977;28;20591;-68
2022/05/12 02:01:34;;;;;;;2.80;2.55;;;;;;;19.73;44.28;96604.78;5012397;28;20187;-69
2022/05/12 02:04:01;;;;;;;6.85;3.15;;;;;;;19.70;44.41;96616.81;5012897;28;20211;-68
2022/05/12 02:06:27;;;;;;;2.78;2.58;;;;;;;19.55;44.52;96621.56;5012685;28;20183;-69
2022/05/12 02:08:52;;;;;;;2.90;2.60;;;;;;;19.33;45.25;96622.91;4995237;28;20257;-68
2022/05/12 02:11:18;;;;;;;2.92;2.30;;;;;;;19.34;45.23;96621.78;5012760;28;20262;-68
2022/05/12 02:13:43;;;;;;;3.38;2.35;;;;;;;19.41;45.03;96622.25;5012176;28;20222;-67
2022/05/12 02:16:08;;;;;;;3.25;2.47;;;;;;;19.39;45.29;96627.03;5012810;28;20179;-67
2022/05/12 02:18:34;;;;;;;2.70;2.50;;;;;;;19.40;45.37;96635.81;5012171;28;20754;-67
2022/05/12 02:20:59;;;;;;;3.60;2.35;;;;;;;19.38;45.74;96630.81;5012208;28;20281;-67
2022/05/12 02:23:25;;;;;;;2.50;2.30;;;;;;;19.41;45.99;96629.41;5012195;28;20194;-67
2022/05/12 02:25:50;;;;;;;2.30;2.20;;;;;;;19.29;46.15;96635.16;5012615;28;20192;-68
2022/05/12 02:28:16;;;;;;;3.75;2.55;;;;;;;19.30;46.24;96639.41;5012265;28;20242;-70
2022/05/12 02:30:42;;;;;;;4.82;2.35;;;;;;;19.30;46.36;96635.94;5012565;28;20191;-68
2022/05/12 02:33:09;;;;;;;2.97;2.70;;;;;;;19.30;46.55;96638.59;5012169;28;20192;-68
2022/05/12 02:35:35;;;;;;;2.40;2.28;;;;;;;19.36;46.35;96648.09;5012181;28;20274;-68
2022/05/12 02:38:01;;;;;;;2.70;2.50;;;;;;;19.32;46.64;96649.75;5012675;28;20286;-67
2022/05/12 02:40:28;;;;;;;2.60;2.45;;;;;;;19.23;47.02;96654.09;5012667;28;20184;-68
2022/05/12 02:42:54;;;;;;;2.92;2.60;;;;;;;19.31;46.79;96658.78;5012160;28;20192;-69
2022/05/12 02:45:20;;;;;;;3.17;2.55;;;;;;;19.32;47.46;96661.19;5012307;28;20290;-69
2022/05/12 02:47:45;;;;;;;3.20;2.33;;;;;;;19.40;48.12;96655.22;5012452;28;20180;-69
2022/05/12 02:50:13;;;;;;;3.45;2.58;;;;;;;19.42;48.87;96652.28;5012500;28;20199;-68
2022/05/12 02:52:39;;;;;;;3.08;2.47;;;;;;;19.45;49.16;96657.03;5012179;28;20674;-68
2022/05/12 02:55:05;;;;;;;3.78;2.58;;;;;;;19.46;49.26;96669.25;5012236;28;20211;-69
2022/05/12 02:57:30;;;;;;;4.68;2.47;;;;;;;19.47;49.34;96665.53;4999855;28;20219;-68
2022/05/12 02:59:55;;;;;;;4.10;2.40;;;;;;;19.54;49.36;96670.50;5012795;28;20198;-68
2022/05/12 03:02:21;;;;;;;4.93;2.65;;;;;;;19.45;49.88;96657.84;5015898;28;20529;-68
2022/05/12 03:04:46;;;;;;;3.55;2.60;;;;;;;19.54;49.87;96663.31;5015740;28;20658;-68
2022/05/12 03:07:12;;;;;;;4.72;2.75;;;;;;;19.41;50.10;96663.97;4997699;28;20598;-68
2022/05/12 03:09:37;;;;;;;2.63;2.42;;;;;;;19.30;50.78;96671.28;5015633;28;20273;-68
2022/05/12 03:12:04;;;;;;;3.28;2.60;;;;;;;19.30;50.73;96684.59;5015476;28;20187;-69
2022/05/12 03:14:29;;;;;;;3.50;3.20;;;;;;;19.28;51.03;96686.72;5015391;28;20245;-68
2022/05/12 03:16:54;;;;;;;3.42;2.45;;;;;;;19.14;51.34;96693.81;5015289;28;20207;-69
2022/05/12 03:19:22;;;;;;;3.50;2.47;;;;;;;19.18;51.41;96691.38;5014446;28;20616;-68
2022/05/12 03:21:48;;;;;;;3.47;2.28;;;;;;;19.14;51.80;96691.16;5014822;28;20191;-69
2022/05/12 03:24:17;;;;;;;5.35;2.25;;;;;;;19.06;52.02;96689.09;5015131;28;20216;-69
2022/05/12 03:26:43;;;;;;;3.45;2.60;;;;;;;19.16;51.89;96694.31;5015201;28;20206;-68
2022/05/12 03:29:08;;;;;;;2.63;2.42;;;;;;;19.02;52.32;96698.72;4997364;28;20183;-68
2022/05/12 03:31:34;;;;;;;5.43;2.47;;;;;;;19.14;52.48;96696.47;5015312;28;20188;-68
2022/05/12 03:34:00;;;;;;;2.63;2.33;;;;;;;19.07;52.58;96701.31;5014811;28;20189;-69
2022/05/12 03:36:26;;;;;;;3.85;2.70;;;;;;;18.98;53.08;96701.16;5015117;28;20206;-68
2022/05/12 03:38:51;;;;;;;2.55;2.30;;;;;;;19.06;53.11;96707.69;5014828;28;20210;-69
2022/05/12 03:41:16;;;;;;;4.85;2.17;;;;;;;19.02;53.40;96714.66;5014925;28;20211;-69
2022/05/12 03:46:26;;;;;;;3.08;2.40;;;;;;;18.92;54.14;96709.47;5014630;28;20237;-68
2022/05/12 03:48:51;;;;;;;3.20;2.25;;;;;;;18.92;54.27;96704.94;5014579;28;20591;-69
2022/05/12 03:51:17;;;;;;;2.10;2.00;;;;;;;18.95;54.13;96712.34;5014816;28;20187;-69
2022/05/12 03:53:42;;;;;;;8.20;2.60;;;;;;;19.06;54.00;96713.00;5014503;28;20183;-68
2022/05/12 03:56:09;;;;;;;3.97;1.77;;;;;;;18.90;54.64;96711.59;5004353;28;20640;-68
2022/05/12 03:58:36;;;;;;;2.30;2.10;;;;;;;18.96;54.61;96710.47;5008867;28;20262;-70
2022/05/12 04:01:03;;;;;;;7.70;2.22;;;;;;;18.97;54.63;96728.00;5011152;28;20195;-68
2022/05/12 04:03:28;;;;;;;2.30;2.10;;;;;;;18.83;55.04;96727.88;5014266;28;20177;-68
2022/05/12 04:06:02;;;;;;;2.63;2.08;;;;;;;18.97;54.91;96728.78;5014186;28;20538;-68
2022/05/12 04:08:28;;;;;;;3.90;2.00;;;;;;;18.92;54.90;96723.53;5014614;28;20180;-68
2022/05/12 04:10:53;;;;;;;1.60;1.50;;;;;;;18.99;54.92;96742.59;5014089;28;20644;-68
2022/05/12 04:13:19;;;;;;;4.10;2.08;;;;;;;19.04;54.85;96741.75;5013785;28;20218;-68
2022/05/12 04:15:44;;;;;;;2.00;1.80;;;;;;;19.08;54.90;96745.41;5014359;28;20179;-68
2022/05/12 04:18:10;;;;;;;2.28;1.77;;;;;;;19.07;55.01;96747.28;5014246;28;20314;-68
2022/05/12 04:20:36;;;;;;;1.80;1.70;;;;;;;18.91;55.39;96753.81;5013502;28;20190;-68
2022/05/12 04:23:03;;;;;;;2.25;1.80;;;;;;;19.10;55.12;96752.06;5014232;28;20191;-68
2022/05/12 04:25:28;;;;;;;3.50;1.52;;;;;;;18.96;55.34;96753.75;5013968;28;20221;-68
2022/05/12 04:27:54;;;;;;;2.15;1.60;;;;;;;19.14;55.05;96759.44;5014149;28;20191;-69
2022/05/12 04:30:26;;;;;;;2.15;1.40;;;;;;;19.01;55.43;96755.56;5013041;28;20277;-68
2022/05/12 04:32:52;;;;;;;1.55;1.45;;;;;;;18.97;55.78;96760.66;5014046;28;20163;-68
2022/05/12 04:35:20;;;;;;;1.60;1.50;;;;;;;19.09;55.44;96761.09;5013735;28;20183;-68
2022/05/12 04:37:52;;;;;;;1.83;1.60;;;;;;;18.96;55.93;96772.38;5013816;28;20195;-68
2022/05/12 04:40:26;;;;;;;1.75;1.65;;;;;;;19.20;55.71;96772.41;5013632;28;20207;-68
2022/05/12 04:42:53;;;;;;;2.13;1.88;;;;;;;19.14;55.70;96778.03;5007846;28;20524;-67
2022/05/12 04:45:21;;;;;;;3.63;2.03;;;;;;;19.37;55.47;96778.06;5013419;28;20618;-68
2022/05/12 04:47:47;;;;;;;1.67;1.58;;;;;;;19.48;54.95;96781.44;5013569;28;20191;-68
2022/05/12 04:50:19;;;;;;;3.25;1.60;;;;;;;19.66;54.54;96777.25;5013989;28;20199;-68
2022/05/12 04:52:46;;;;;;;1.83;1.60;;;;;;;19.82;54.08;96783.97;5013256;28;20187;-68
2022/05/12 04:55:12;;;;;;;1.65;1.55;;;;;;;19.86;54.10;96788.41;5007131;28;20192;-68
2022/05/12 04:57:42;;;;;;;1.60;1.50;;;;;;;20.04;53.82;96788.72;5005639;28;20632;-68
2022/05/12 05:00:13;;;;;;;2.28;1.80;;;;;;;20.39;52.68;96792.81;5013799;28;20266;-68
2022/05/12 05:02:39;;;;;;;1.60;1.50;;;;;;;20.41;52.89;96801.28;5013094;28;20179;-68
2022/05/12 05:05:05;;;;;;;2.47;1.55;;;;;;;20.44;52.63;96806.84;5013437;28;20656;-68
2022/05/12 05:07:30;;;;;;;4.80;1.70;;;;;;;20.72;52.25;96805.09;5013315;28;20187;-68
2022/05/12 05:09:56;;;;;;;4.75;2.00;;;;;;;20.52;52.40;96811.50;5013450;28;20261;-68
2022/05/12 05:12:21;;;;;;;1.65;1.50;;;;;;;20.69;52.01;96816.31;4995946;28;20273;-68
2022/05/12 05:14:47;;;;;;;2.70;1.52;;;;;;;20.36;52.85;96810.13;5013092;28;20263;-69
2022/05/12 05:17:12;;;;;;;2.13;1.42;;;;;;;20.03;53.46;96827.06;5012826;28;20699;-68
2022/05/12 05:19:38;;;;;;;1.67;1.58;;;;;;;20.04;53.96;96828.66;4995178;28;20563;-69
2022/05/12 05:22:03;;;;;;;2.47;1.60;;;;;;;19.99;54.36;96840.16;5013063;28;20270;-68
2022/05/12 05:24:29;;;;;;;5.43;1.58;;;;;;;20.45;53.26;96835.03;5011926;28;20230;-68
2022/05/12 05:26:55;;;;;;;2.67;1.40;;;;;;;20.46;53.17;96843.81;5012587;28;20541;-68
2022/05/12 05:29:20;;;;;;;1.80;1.70;;;;;;;20.32;53.79;96844.53;5013034;28;20612;-68
2022/05/12 05:31:45;;;;;;;2.15;1.80;;;;;;;20.62;53.02;96847.84;5013134;28;20640;-69
2022/05/12 05:34:11;;;;;;;3.03;1.35;;;;;;;20.50;52.83;96856.28;4995459;28;20206;-70
2022/05/12 05:36:39;;;;;;;1.48;1.38;;;;;;;20.41;53.36;96855.31;5012866;28;20187;-69
2022/05/12 05:39:06;;;;;;;1.70;1.60;;;;;;;20.44;53.60;96864.63;5012908;28;20183;-69
2022/05/12 05:41:32;;;;;;;2.05;1.88;;;;;;;20.09;54.47;96858.66;5013115;28;20183;-68
2022/05/12 05:43:57;;;;;;;2.30;1.50;;;;;;;19.84;55.55;96865.06;5012566;28;20361;-68
2022/05/12 05:46:23;;;;;;;2.75;1.63;;;;;;;20.28;54.58;96877.31;5013023;28;20221;-68
2022/05/12 05:48:50;;;;;;;1.70;1.60;;;;;;;20.38;54.43;96882.53;5012876;28;20190;-68
2022/05/12 05:53:59;;;;;;;4.35;1.60;;;;;;;20.24;54.98;96889.59;5011753;28;20194;-69
2022/05/12 05:56:25;;;;;;;1.75;1.65;;;;;;;20.34;55.27;96892.94;4996166;28;20188;-68
2022/05/12 05:58:50;;;;;;;2.35;1.58;;;;;;;20.43;54.94;96898.44;5012699;28;20210;-68
2022/05/12 06:01:17;;;;;;;1.42;1.42;;;;;;;20.43;54.63;96908.31;5012678;28;20269;-70
2022/05/12 06:03:43;;;;;;;2.95;1.98;;;;;;;20.48;55.01;96903.69;5012292;28;20706;-71
2022/05/12 06:06:08;;;;;;;1.83;1.67;;;;;;;20.41;55.26;96905.13;5012816;28;20274;-69
2022/05/12 06:08:33;;;;;;;2.28;1.85;;;;;;;20.62;54.38;96906.44;5012574;28;20185;-69
2022/05/12 06:11:04;;;;;;;1.95;1.70;;;;;;;20.61;54.70;96908.34;5012579;28;20206;-69
2022/05/12 06:13:30;;;;;;;1.92;1.80;;;;;;;20.85;54.28;96912.78;5012695;28;20233;-69
2022/05/12 06:15:55;;;;;;;1.77;1.40;;;;;;;20.81;54.32;96915.22;5012709;28;20191;-71
2022/05/12 06:18:21;;;;;;;1.70;1.60;;;;;;;21.41;52.68;96921.53;5012403;28;20318;-71
2022/05/12 06:20:49;;;;;;;3.05;1.63;;;;;;;21.26;53.08;96919.09;5012095;28;20187;-72
2022/05/12 06:23:15;;;;;;;3.55;1.73;;;;;;;21.01;54.08;96922.91;5012286;28;20183;-73
2022/05/12 06:25:40;;;;;;;1.60;1.50;;;;;;;21.10;53.30;96917.75;5011993;28;20210;-72
2022/05/12 06:28:07;;;;;;;2.00;1.52;;;;;;;21.84;52.01;96919.44;5012528;28;20191;-73
2022/05/12 06:30:32;;;;;;;3.42;1.60;;;;;;;22.47;50.67;96923.31;5012497;28;20274;-72
2022/05/12 06:32:58;;;;;;;1.75;1.65;;;;;;;22.95;48.58;96921.75;5012259;28;20218;-72
2022/05/12 06:35:25;;;;;;;1.63;1.42;;;;;;;22.49;49.35;96921.94;5013538;28;20636;-72
2022/05/12 06:37:51;;;;;;;4.88;1.70;;;;;;;22.26;49.92;96917.59;4998307;28;20188;-76
2022/05/12 06:40:18;;;;;;;2.97;1.85;;;;;;;23.17;48.87;96924.44;5016770;28;20191;-75
2022/05/12 06:42:43;;;;;;;2.45;1.90;;;;;;;23.36;48.18;96926.13;5016452;28;20307;-76
2022/05/12 06:45:15;;;;;;;2.70;1.70;;;;;;;22.90;48.08;96932.56;5015717;28;20289;-73
2022/05/12 06:47:48;;;;;;;1.77;1.42;;;;;;;23.67;46.86;96932.34;5015985;28;20241;-71
2022/05/12 06:50:16;;;;;;;1.55;1.45;;;;;;;23.50;46.98;96930.38;5016649;28;20684;-72
2022/05/12 06:52:43;;;;;;;2.03;1.77;;;;;;;23.37;47.79;96944.56;5016090;28;20218;-71
2022/05/12 06:55:08;;;;;;;1.63;1.52;;;;;;;22.65;49.21;96933.88;5002691;28;20202;-71
2022/05/12 06:57:34;;;;;;;3.75;1.60;;;;;;;22.56;49.25;96935.69;5023233;28;20270;-71
2022/05/12 06:59:59;;;;;;;3.33;1.80;;;;;;;22.58;49.82;96943.38;5007903;28;20191;-71
2022/05/12 07:02:25;;;;;;;1.90;1.75;;;;;;;22.65;49.84;96941.09;5015613;28;20647;-71
2022/05/12 07:04:53;;;;;;;1.80;1.45;;;;;;;22.30;51.00;96947.94;5015233;28;20239;-73
2022/05/12 07:07:20;;;;;;;2.33;2.13;;;;;;;22.05;51.38;96943.91;5015927;28;20667;-72
2022/05/12 07:09:46;;;;;;;2.95;1.70;;;;;;;22.36;50.98;96942.22;5001606;28;20187;-72
2022/05/12 07:12:13;;;;;;;1.92;1.80;;;;;;;22.13;50.82;96951.22;5009802;28;20648;-72
2022/05/12 07:14:38;;;;;;;1.85;1.70;;;;;;;22.42;50.41;96955.47;5014968;28;20564;-71
2022/05/12 07:17:04;;;;;;;1.73;1.63;;;;;;;22.49;50.94;96962.00;5015226;28;20191;-72
2022/05/12 07:19:31;;;;;;;1.60;1.50;;;;;;;22.29;51.35;96955.16;5015545;28;20647;-72
2022/05/12 07:26:35;;;;;;;2.42;1.60;;;;;;;21.94;52.44;96966.50;5014673;28;20767;-73
2022/05/12 07:27:38;;;;;;;2.25;1.60;;;;;;;22.05;51.54;96972.47;5014374;28;20194;-72
2022/05/12 07:30:06;;;;;;;1.73;1.50;;;;;;;22.05;52.14;96969.81;5015196;28;20186;-72
2022/05/12 07:32:32;;;;;;;3.10;1.60;;;;;;;22.74;50.88;96966.84;5014430;28;20644;-73
2022/05/12 07:34:57;;;;;;;3.42;1.58;;;;;;;23.11;50.37;96970.31;5014708;28;20228;-73
2022/05/12 07:37:23;;;;;;;4.22;1.63;;;;;;;22.86;49.68;96977.00;5014684;28;20179;-73
2022/05/12 07:39:48;;;;;;;3.55;1.70;;;;;;;22.86;50.63;96979.69;5015199;28;20182;-72
2022/05/12 07:42:13;;;;;;;3.47;1.63;;;;;;;23.00;50.43;96977.78;5015230;28;20636;-73
2022/05/12 07:44:40;;;;;;;1.52;1.30;;;;;;;23.16;49.32;96980.91;5015472;28;20207;-72
2022/05/12 07:47:09;;;;;;;3.78;1.52;;;;;;;23.35;49.72;96991.44;5014179;28;20604;-72
2022/05/12 07:49:36;;;;;;;4.68;1.38;;;;;;;22.96;49.87;96982.13;4983784;28;20195;-72
2022/05/12 07:52:07;;;;;;;1.85;1.52;;;;;;;23.16;49.40;96978.22;5014771;28;20192;-75
2022/05/12 07:54:33;;;;;;;1.88;1.60;;;;;;;23.39;48.92;96981.72;5001611;28;20223;-73
2022/05/12 07:57:00;;;;;;;1.40;1.30;;;;;;;22.97;48.91;96988.28;5014522;28;20179;-72
2022/05/12 07:59:27;;;;;;;1.75;1.50;;;;;;;22.80;50.01;96991.56;5014907;28;20179;-72
2022/05/12 08:01:53;;;;;;;2.13;1.50;;;;;;;23.12;49.91;96990.63;5015150;28;20187;-72
2022/05/12 08:04:19;;;;;;;1.60;1.30;;;;;;;23.21;48.68;96989.59;5014629;28;20214;-72
2022/05/12 08:06:44;;;;;;;1.65;1.52;;;;;;;23.14;49.35;96986.56;5014068;28;20184;-71
2022/05/12 08:09:10;;;;;;;2.72;1.50;;;;;;;22.75;50.62;96986.34;5014798;28;20640;-72
2022/05/12 08:11:36;;;;;;;1.52;1.42;;;;;;;23.40;49.03;96988.66;4997320;28;20179;-71
2022/05/12 08:14:01;;;;;;;2.50;1.50;;;;;;;22.64;50.84;96988.41;5014653;28;20625;-71
2022/05/12 08:16:27;;;;;;;4.63;1.50;;;;;;;23.03;49.77;96993.22;5014467;28;20191;-72
2022/05/12 08:18:52;;;;;;;1.55;1.45;;;;;;;23.45;49.01;96989.31;5014654;28;20746;-72
2022/05/12 08:21:20;;;;;;;1.40;1.40;;;;;;;23.80;47.97;96989.56;5013990;28;20222;-72
2022/05/12 08:23:47;;;;;;;6.03;2.00;;;;;;;24.07;46.86;96986.75;5014133;28;20238;-71
2022/05/12 08:26:12;;;;;;;2.97;1.67;;;;;;;24.45;45.99;96987.06;5014338;28;20266;-71
2022/05/12 08:28:38;;;;;;;1.65;1.55;;;;;;;23.96;47.32;96994.22;5014420;28;20199;-71
2022/05/12 08:31:04;;;;;;;3.42;1.70;;;;;;;24.36;46.18;96994.28;5014128;28;20195;-72
2022/05/12 08:33:29;;;;;;;1.50;1.40;;;;;;;24.35;46.33;96990.81;5014189;28;20197;-72
2022/05/12 08:35:55;;;;;;;1.77;1.60;;;;;;;24.56;46.54;96988.38;5014706;28;20187;-72
2022/05/12 08:38:21;;;;;;;1.88;1.65;;;;;;;24.01;47.02;96987.97;5014381;28;20616;-72
2022/05/12 08:41:09;;;;;;;2.35;1.85;;;;;;;24.40;45.71;96992.56;5014132;28;20191;-71
2022/05/12 08:43:54;;;;;;;4.28;2.00;;;;;;;23.47;48.69;97000.53;5013871;28;20171;-71
2022/05/12 08:46:40;;;;;;;1.95;1.65;;;;;;;23.85;47.75;96998.25;5013468;28;20207;-72
2022/05/12 08:49:17;;;;;;;4.70;1.50;;;;;;;24.59;45.84;97003.03;5013515;28;20193;-72
2022/05/12 08:51:44;;;;;;;1.80;1.70;;;;;;;24.20;46.77;97004.63;5013893;28;20536;-72
2022/05/12 08:54:14;;;;;;;1.83;1.73;;;;;;;23.92;47.64;97019.25;4982341;28;20190;-72
2022/05/12 08:56:40;;;;;;;2.33;1.52;;;;;;;23.60;47.88;97015.75;5007871;28;20183;-71
2022/05/12 08:59:05;;;;;;;3.35;1.80;;;;;;;22.72;49.49;97009.13;4996093;28;20179;-72
2022/05/12 09:01:59;;;;;;;1.70;1.60;;;;;;;23.63;48.17;97011.66;5013840;28;20241;-71
2022/05/12 09:04:54;;;;;;;3.97;1.77;;;;;;;24.15;47.77;97014.66;5013453;28;20201;-72
2022/05/12 09:07:28;;;;;;;2.00;1.77;;;;;;;23.91;47.44;97014.97;5013864;28;20178;-72
2022/05/12 09:10:38;;;;;;;3.72;1.73;;;;;;;24.30;46.73;97011.59;5014217;28;20266;-71
2022/05/12 09:13:15;;;;;;;3.97;1.70;;;;;;;24.43;47.12;97010.69;5006682;28;20349;-73
2022/05/12 09:15:49;;;;;;;4.18;1.90;;;;;;;23.87;48.28;97006.00;5013838;28;20270;-72
2022/05/12 09:18:19;;;;;;;2.67;1.90;;;;;;;23.38;49.79;97010.34;5012625;28;20579;-72
2022/05/12 09:20:45;;;;;;;2.72;1.58;;;;;;;24.27;47.54;97007.66;5012594;28;20237;-72
2022/05/12 09:23:10;;;;;;;2.22;2.00;;;;;;;24.80;46.46;97004.03;5013687;28;20262;-72
2022/05/12 09:25:47;;;;;;;1.83;1.60;;;;;;;25.25;45.92;97018.00;5014555;28;20226;-73
2022/05/12 09:28:27;;;;;;;2.00;1.83;;;;;;;25.26;45.26;97003.47;5013582;28;20183;-74
2022/05/12 09:30:55;;;;;;;5.45;2.08;;;;;;;25.61;44.20;97009.66;4998788;28;20282;-72
2022/05/12 09:33:35;;;;;;;2.55;1.92;;;;;;;25.57;44.08;97014.09;5013397;28;20248;-72
2022/05/12 09:36:05;;;;;;;4.22;2.13;;;;;;;25.87;43.69;97015.78;5013050;28;20195;-73
2022/05/12 09:38:38;;;;;;;3.40;1.88;;;;;;;25.38;44.64;97016.28;5013446;28;20270;-72
2022/05/12 09:41:17;;;;;;;2.10;1.88;;;;;;;25.65;44.24;97016.78;5013315;28;20249;-71
2022/05/12 09:43:42;;;;;;;2.00;1.90;;;;;;;25.33;44.66;97017.22;5012953;28;20182;-72
2022/05/12 09:46:18;;;;;;;2.30;2.20;;;;;;;25.89;43.44;97018.16;5013393;28;20180;-72
2022/05/12 09:48:48;;;;;;;1.70;1.60;;;;;;;26.22;43.00;97013.00;5012886;28;20195;-73
2022/05/12 09:51:33;;;;;;;4.38;2.25;;;;;;;26.20;43.17;97009.84;5013128;28;20191;-71
2022/05/12 09:54:25;;;;;;;3.35;2.17;;;;;;;26.08;43.13;97013.22;4996040;28;20231;-71
2022/05/12 09:57:26;;;;;;;2.65;2.35;;;;;;;25.89;43.30;97010.88;5003292;28;20260;-70
2022/05/12 09:59:57;;;;;;;2.60;2.40;;;;;;;25.67;43.24;97005.72;4951292;29;20678;-69
2022/05/12 10:07:53;;;;;;;4.63;2.20;;;;;;;25.33;43.78;96997.66;5001762;28;20645;-69
2022/05/12 10:08:14;;;;;;;2.63;2.42;;;;;;;25.59;44.27;96993.06;5012236;28;20190;-69
2022/05/12 10:10:40;;;;;;;2.95;2.53;;;;;;;25.81;43.88;96992.88;5014446;28;20179;-70
2022/05/12 10:13:20;;;;;;;4.32;2.38;;;;;;;26.05;43.11;96986.97;5017183;28;20281;-71
2022/05/12 10:15:48;;;;;;;7.65;2.40;;;;;;;25.94;43.15;96983.84;5016714;28;20551;-70
2022/05/12 10:18:28;;;;;;;3.97;2.60;;;;;;;26.27;42.71;96989.47;5016277;28;20231;-70
2022/05/12 10:21:01;;;;;;;2.70;2.50;;;;;;;26.02;42.26;96983.06;5016298;28;20201;-70
2022/05/12 10:23:36;;;;;;;2.67;2.30;;;;;;;25.49;43.15;96978.06;5014206;28;20194;-69
2022/05/12 10:26:16;;;;;;;2.80;2.60;;;;;;;25.80;42.65;96980.56;4981514;28;20190;-69
2022/05/12 10:28:49;;;;;;;3.78;3.00;;;;;;;25.87;41.43;96970.13;5015957;28;20186;-68
2022/05/12 10:31:28;;;;;;;5.32;2.90;;;;;;;25.71;42.45;96976.31;5010701;28;20578;-70
2022/05/12 10:33:57;;;;;;;3.20;2.90;;;;;;;24.58;44.68;96961.22;4998706;28;20246;-68
2022/05/12 10:36:50;;;;;;;3.00;2.70;;;;;;;24.55;45.50;96968.03;5010042;28;20358;-69
2022/05/12 10:39:41;;;;;;;5.00;2.75;;;;;;;24.61;45.38;96968.66;5015568;28;20516;-69
2022/05/12 10:42:32;;;;;;;2.50;2.30;;;;;;;24.83;45.49;96963.19;5015962;28;20303;-68
2022/05/12 10:45:24;;;;;;;4.18;2.50;;;;;;;25.05;45.55;96970.34;5015885;28;20207;-69
2022/05/12 10:48:04;;;;;;;3.03;2.22;;;;;;;24.80;45.96;96967.28;4996123;28;20539;-69
2022/05/12 10:51:02;;;;;;;3.45;2.17;;;;;;;24.56;46.46;96952.72;5015717;28;20179;-69
2022/05/12 10:53:38;;;;;;;2.88;2.60;;;;;;;24.35;46.40;96952.53;5007071;28;20248;-68
2022/05/12 10:56:20;;;;;;;2.78;2.58;;;;;;;24.47;46.22;96952.69;5015914;28;20210;-69
2022/05/12 10:59:08;;;;;;;2.78;2.58;;;;;;;24.80;45.88;96959.22;5015453;28;20176;-69
2022/05/12 11:01:57;;;;;;;4.63;2.60;;;;;;;24.67;45.54;96946.75;5015425;28;20226;-69
2022/05/12 11:04:31;;;;;;;2.83;2.50;;;;;;;24.85;45.26;96951.03;4998329;28;20631;-69
2022/05/12 11:07:06;;;;;;;2.78;2.47;;;;;;;25.29;43.36;96946.50;5015600;28;20183;-69
2022/05/12 11:09:36;;;;;;;3.55;2.50;;;;;;;25.89;42.39;96945.63;5015816;28;20179;-69
2022/05/12 11:12:17;;;;;;;5.30;2.97;;;;;;;26.05;42.18;96942.09;5014889;28;20182;-69
2022/05/12 11:14:52;;;;;;;3.10;2.80;;;;;;;26.11;41.72;96934.66;5015636;28;20241;-69
2022/05/12 11:17:36;;;;;;;3.50;2.40;;;;;;;26.32;41.55;96930.16;5014358;28;20310;-69
2022/05/12 11:20:26;;;;;;;4.05;2.88;;;;;;;26.22;41.13;96921.63;5014844;28;20198;-70
2022/05/12 11:22:54;;;;;;;5.25;2.70;;;;;;;26.63;40.79;96926.34;5003555;28;20183;-69
2022/05/12 11:25:33;;;;;;;4.78;2.60;;;;;;;26.70;40.50;96931.97;5014138;28;20231;-69
2022/05/12 11:31:21;;;;;;;3.25;2.58;;;;;;;26.61;41.26;96929.34;4978900;28;20169;-70
2022/05/12 11:33:53;;;;;;;2.85;2.53;;;;;;;25.23;43.85;96935.16;4996088;28;20171;-69
2022/05/12 11:36:18;;;;;;;3.13;2.47;;;;;;;25.66;42.76;96934.31;5010913;28;20620;-72
2022/05/12 11:38:53;;;;;;;3.22;2.67;;;;;;;25.87;42.38;96934.41;5015121;28;20188;-71
2022/05/12 11:41:27;;;;;;;3.00;2.80;;;;;;;25.92;41.93;96923.50;5015262;28;20636;-71
2022/05/12 11:44:27;;;;;;;7.72;3.00;;;;;;;25.59;42.10;96916.00;5015051;28;20270;-70
2022/05/12 11:47:11;;;;;;;3.95;2.80;;;;;;;25.14;43.93;96909.41;5005001;28;20186;-70
2022/05/12 11:49:40;;;;;;;2.65;2.47;;;;;;;25.86;43.10;96909.44;5001906;28;20222;-69
2022/05/12 11:52:24;;;;;;;4.10;2.80;;;;;;;26.36;42.00;96908.78;4989761;28;20663;-69
2022/05/12 11:54:57;;;;;;;2.58;2.38;;;;;;;26.30;41.66;96904.72;5014774;28;20194;-70
2022/05/12 11:57:32;;;;;;;2.90;2.70;;;;;;;26.49;40.70;96913.13;5014493;28;20194;-68
2022/05/12 12:00:00;;;;;;;2.78;2.50;;;;;;;26.21;41.21;96904.72;5014290;28;20183;-68